createdAt,value
2022-10-30T19:22:41.569Z,34.97
2022-10-30T19:27:44.873Z,36.00
2022-10-30T19:32:47.720Z,26.58
2022-10-30T19:37:53.168Z,23.20
2022-10-30T19:42:56.920Z,29.67
2022-10-30T19:48:20.854Z,19.55
2022-10-30T19:53:57.031Z,20.95
2022-10-30T20:10:16.386Z,26.13
2022-10-30T20:15:21.672Z,21.45
2022-10-30T20:20:32.804Z,19.50
2022-10-30T20:25:35.383Z,28.58
2022-10-30T20:30:38.043Z,30.88
2022-10-30T20:35:40.203Z,43.25
2022-10-30T20:46:36.062Z,32.13
2022-10-30T20:56:40.185Z,33.50
2022-10-30T21:01:42.233Z,35.90
2022-10-30T21:11:46.442Z,63.33
2022-10-30T21:21:55.098Z,40.45
2022-10-30T21:32:02.349Z,40.90
2022-10-30T21:37:05.276Z,40.83
2022-10-30T21:42:09.497Z,55.38
2022-10-30T21:47:14.689Z,46.58
2022-10-30T21:52:17.050Z,44.17
2022-10-30T22:02:22.088Z,51.75
2022-10-30T22:07:24.391Z,43.13
2022-10-30T22:12:26.356Z,39.03
2022-10-30T22:17:30.777Z,43.67
2022-10-30T22:22:35.985Z,43.42
2022-10-30T22:27:38.037Z,41.08
2022-10-30T22:32:40.323Z,39.92
2022-10-30T22:37:42.522Z,41.80
2022-10-30T22:47:46.664Z,32.88
2022-10-30T22:57:54.788Z,31.80
2022-10-30T23:02:56.976Z,32.70
2022-10-30T23:07:59.269Z,34.85
2022-10-30T23:13:01.563Z,32.72
2022-10-30T23:18:03.773Z,28.80
2022-10-30T23:23:05.782Z,27.90
2022-10-30T23:28:09.087Z,32.45
2022-10-30T23:33:11.360Z,29.05
2022-10-30T23:43:16.377Z,29.33
2022-10-30T23:48:18.326Z,26.20
2022-10-30T23:53:20.380Z,24.17
2022-10-30T23:58:22.420Z,20.88
